Iruya, Argentina
Current Conditions -  °F | °C
As of 8:00 PM on Tuesday 27 Jan 2015 (Local Time) from SLTJ Reporting Station
Broken Clouds Broken Clouds  
Wind Chill: 24°   Ceiling: 20000
Heat Index: 24°   Visibility: 6mi
Dew Point: 16°   Wind: 6mph
Humidity: 61%   Direction: 120°ESE
Pressure: 29.94"   Gusts: NA
Location:  22.84°S, 65.23°W
Report Text: SLTJ 272300Z 12005KT 9999 FEW033 BKN200 24/16 Q1014
Loading
Personal Weather Stations






























Interactive Weather Map New forecast layout! Learn more

10-Day Weather Forecast

Advertisements
Track Severe Weather on mobile